ESEM weather

Lund Hospital Heliport
Lund, Skåne län, Sweden

Public forecast

Using degrees Celsius for public forecast. Weather courtesy of forecast.io.

Closest aviation weather report (METAR) to Lund Hospital Heliport

Closest report is Malmö Sturup Airport, 12.1 nm (22.5 km) SSE. Retrieved 2019/10/23 19:20 UTC (0 seconds ago):

ESMS 231920Z 15006KT 2500 BR OVC003 10/10 Q1017

Closest aviation forecast (TAF) to Lund Hospital Heliport

Closest forecast is Malmö Sturup Airport, 12.1 nm (22.5 km) SSE. Retrieved 2019/10/23 18:36 UTC (38 minutes ago):

TAF ESMS 231711Z 2318/2418 15010KT 8000 BKN025 TEMPO 2318/2323 3000 BR BKN004 TEMPO 2323/2406 2500 BR BECMG 2406/2408 BKN004 TEMPO 2408/2418 1200 BR BKN001